Time;durP1;ratioP1;P1;durP2;ratioP2;P2;SDS_P1;SDS_P2;PMS_P1;PMS_P2;Temp;Humidity;BMP_temperature;BMP_pressure;BME280_temperature;BME280_humidity;BME280_pressure;Samples;Min_cycle;Max_cycle;Signal;HPM_P1;HPM_P2
2023/03/22 00:01:57;;;;;;;18.45;10.82;;;9.50;99.90;;;;;;5055197;28;20017;-47
2023/03/22 00:04:23;;;;;;;22.50;11.38;;;9.50;99.90;;;;;;5045419;28;20479;-45
2023/03/22 00:06:48;;;;;;;19.77;11.85;;;9.50;99.90;;;;;;5043382;28;20279;-45
2023/03/22 00:09:14;;;;;;;19.75;11.88;;;9.50;99.90;;;;;;5042925;28;20025;-45
2023/03/22 00:11:40;;;;;;;18.52;11.68;;;9.50;99.90;;;;;;5044177;28;20108;-45
2023/03/22 00:14:05;;;;;;;18.77;10.98;;;9.50;99.90;;;;;;5041910;28;20037;-46
2023/03/22 00:16:31;;;;;;;20.85;11.88;;;9.50;99.90;;;;;;5043687;28;20199;-46
2023/03/22 00:18:57;;;;;;;18.98;12.82;;;9.50;99.90;;;;;;5041331;28;20021;-45
2023/03/22 00:21:22;;;;;;;25.40;13.13;;;9.50;99.90;;;;;;5044071;28;20021;-46
2023/03/22 00:23:48;;;;;;;24.73;13.38;;;9.50;99.90;;;;;;5054675;28;20029;-45
2023/03/22 00:26:14;;;;;;;18.30;12.63;;;9.50;99.90;;;;;;5041536;28;20029;-45
2023/03/22 00:28:41;;;;;;;21.42;12.52;;;9.50;99.90;;;;;;5053860;28;20061;-46
2023/03/22 00:31:07;;;;;;;18.58;12.43;;;9.50;99.90;;;;;;5042111;28;20025;-46
2023/03/22 00:33:32;;;;;;;20.48;12.38;;;9.50;99.90;;;;;;5046579;28;20029;-45
2023/03/22 00:36:01;;;;;;;21.67;13.40;;;9.40;99.90;;;;;;5042217;28;20032;-44
2023/03/22 00:38:35;;;;;;;25.92;13.50;;;9.40;99.90;;;;;;5042052;28;20023;-45
2023/03/22 00:41:07;;;;;;;23.95;14.30;;;9.50;99.90;;;;;;5039864;28;20026;-47
2023/03/22 00:43:33;;;;;;;22.40;13.52;;;9.40;99.90;;;;;;5043676;28;20328;-46
2023/03/22 00:45:58;;;;;;;20.83;13.48;;;9.40;99.90;;;;;;5040990;28;20775;-46
2023/03/22 00:48:24;;;;;;;22.25;14.70;;;9.40;99.90;;;;;;5061867;28;20041;-46
2023/03/22 00:50:49;;;;;;;22.60;13.35;;;9.40;99.90;;;;;;5042525;28;20036;-46
2023/03/22 00:53:15;;;;;;;21.05;13.55;;;9.40;99.90;;;;;;5040546;28;20040;-47
2023/03/22 00:55:41;;;;;;;31.30;14.95;;;9.40;99.90;;;;;;5043452;28;20021;-47
2023/03/22 00:58:06;;;;;;;22.50;14.30;;;9.30;99.90;;;;;;5041400;28;20017;-46
2023/03/22 01:00:32;;;;;;;21.48;13.93;;;9.30;99.90;;;;;;5043468;28;20028;-45
2023/03/22 01:02:58;;;;;;;25.33;14.95;;;9.30;99.90;;;;;;5046096;28;20021;-47
2023/03/22 01:05:24;;;;;;;22.73;15.30;;;9.30;99.90;;;;;;5044471;28;20017;-47
2023/03/22 01:07:50;;;;;;;23.77;15.10;;;9.40;99.90;;;;;;5043072;28;20067;-45
2023/03/22 01:10:18;;;;;;;21.40;14.48;;;9.30;99.90;;;;;;5041475;28;20057;-45
2023/03/22 01:12:44;;;;;;;20.27;15.27;;;9.30;99.90;;;;;;5072632;28;20055;-45
2023/03/22 01:15:10;;;;;;;22.63;14.48;;;9.30;99.90;;;;;;5039779;28;20014;-45
2023/03/22 01:17:35;;;;;;;27.50;15.15;;;9.30;99.90;;;;;;5042885;28;20497;-45
2023/03/22 01:20:01;;;;;;;23.42;15.82;;;9.40;99.90;;;;;;5041462;28;20470;-45
2023/03/22 01:22:26;;;;;;;26.40;15.98;;;9.40;99.90;;;;;;5042285;28;20437;-45
2023/03/22 01:24:52;;;;;;;26.33;15.57;;;9.40;99.90;;;;;;5042442;28;20020;-46
2023/03/22 01:27:17;;;;;;;24.15;15.45;;;9.30;99.90;;;;;;5041007;28;20032;-45
2023/03/22 01:29:43;;;;;;;23.45;15.15;;;9.40;99.90;;;;;;5043074;28;20105;-45
2023/03/22 01:32:08;;;;;;;26.55;17.00;;;9.40;99.90;;;;;;5042583;28;20032;-46
2023/03/22 01:34:34;;;;;;;22.27;15.15;;;9.40;99.90;;;;;;5043226;28;20471;-45
2023/03/22 01:36:59;;;;;;;28.08;16.20;;;9.50;99.90;;;;;;5041890;28;20025;-47
2023/03/22 01:39:26;;;;;;;25.85;16.27;;;9.40;99.90;;;;;;5042110;28;20044;-47
2023/03/22 01:41:51;;;;;;;25.02;16.42;;;9.50;99.90;;;;;;5057496;28;20009;-46
2023/03/22 01:44:20;;;;;;;24.13;16.25;;;9.50;99.90;;;;;;5040894;28;20075;-45
2023/03/22 01:46:48;;;;;;;29.85;16.85;;;9.50;99.90;;;;;;5042223;28;20060;-45
2023/03/22 01:49:31;;;;;;;24.02;16.55;;;9.40;99.90;;;;;;5042537;28;20022;-46
2023/03/22 01:52:01;;;;;;;24.00;15.70;;;9.40;99.90;;;;;;5054025;28;20328;-46
2023/03/22 01:54:32;;;;;;;;;;;9.40;99.90;;;;;;5071951;28;20021;-46
2023/03/22 01:56:59;;;;;;;21.02;14.93;;;9.50;99.90;;;;;;5040738;28;19974;-46
2023/03/22 01:59:26;;;;;;;27.90;17.35;;;9.50;99.90;;;;;;5041460;28;20014;-45
2023/03/22 02:01:51;;;;;;;24.60;15.35;;;9.40;99.90;;;;;;5041997;28;20479;-46
2023/03/22 02:04:19;;;;;;;29.85;15.98;;;9.40;99.90;;;;;;5043910;28;20068;-43
2023/03/22 02:06:46;;;;;;;30.10;16.88;;;9.40;99.90;;;;;;5040847;28;20096;-47
2023/03/22 02:09:15;;;;;;;23.67;16.10;;;9.40;99.90;;;;;;5038035;28;20033;-45
2023/03/22 02:11:45;;;;;;;28.30;16.52;;;9.40;99.90;;;;;;5042016;28;20017;-44
2023/03/22 02:14:32;;;;;;;29.00;16.35;;;9.40;99.90;;;;;;5039390;28;20025;-44
2023/03/22 02:17:06;;;;;;;24.27;16.00;;;9.40;99.90;;;;;;5040737;28;20047;-44
2023/03/22 02:19:47;;;;;;;25.65;15.73;;;9.40;99.90;;;;;;5041731;28;20025;-45
2023/03/22 02:22:37;;;;;;;;;;;9.40;99.90;;;;;;5042534;28;20136;-44
2023/03/22 02:25:16;;;;;;;23.50;15.35;;;9.40;99.90;;;;;;5039293;28;19909;-44
2023/03/22 02:28:03;;;;;;;28.63;18.13;;;9.40;99.90;;;;;;5041456;28;20025;-45
2023/03/22 02:30:37;;;;;;;27.77;16.80;;;9.40;99.90;;;;;;5041486;28;20500;-44
2023/03/22 02:33:06;;;;;;;31.88;18.00;;;9.40;99.90;;;;;;5044365;28;20029;-44
2023/03/22 02:35:46;;;;;;;26.73;17.70;;;9.40;99.90;;;;;;5041977;28;20051;-45
2023/03/22 02:38:14;;;;;;;;;;;9.50;99.90;;;;;;5040383;28;20045;-46
2023/03/22 02:40:53;;;;;;;28.20;16.65;;;9.50;99.90;;;;;;5053289;28;20007;-45
2023/03/22 02:43:40;;;;;;;26.90;18.27;;;9.50;99.90;;;;;;5039998;28;20561;-45
2023/03/22 02:46:29;;;;;;;26.48;17.33;;;9.50;99.90;;;;;;5038757;28;20051;-46
2023/03/22 02:49:10;;;;;;;28.83;18.15;;;9.50;99.90;;;;;;5041507;28;20021;-45
2023/03/22 02:51:58;;;;;;;26.55;17.85;;;9.50;99.90;;;;;;5040196;28;20013;-44
2023/03/22 02:54:27;;;;;;;32.80;17.88;;;9.60;99.90;;;;;;5040149;28;20099;-44
2023/03/22 02:57:00;;;;;;;31.10;18.00;;;9.60;99.90;;;;;;5040384;28;20435;-47
2023/03/22 02:59:27;;;;;;;31.33;16.92;;;9.60;99.90;;;;;;5040464;28;20034;-45
2023/03/22 03:01:56;;;;;;;27.27;17.60;;;9.60;99.90;;;;;;5042279;28;20156;-46
2023/03/22 03:04:30;;;;;;;34.08;18.40;;;9.60;99.90;;;;;;5042528;28;20033;-45
2023/03/22 03:07:05;;;;;;;32.50;17.10;;;9.70;99.90;;;;;;5040707;28;20100;-45
2023/03/22 03:09:32;;;;;;;28.33;17.50;;;9.60;99.90;;;;;;5040948;28;20474;-44
2023/03/22 03:11:58;;;;;;;27.55;17.02;;;9.60;99.90;;;;;;5040130;28;20021;-46
2023/03/22 03:14:29;;;;;;;27.98;17.23;;;9.60;99.90;;;;;;5040114;28;20356;-46
2023/03/22 03:17:20;;;;;;;33.17;17.50;;;9.60;99.90;;;;;;5044274;28;20158;-44
2023/03/22 03:20:15;;;;;;;29.73;16.98;;;9.60;99.90;;;;;;5042875;28;20021;-44
2023/03/22 03:23:19;;;;;;;31.20;17.77;;;9.70;99.90;;;;;;5041258;28;20040;-44
2023/03/22 03:25:57;;;;;;;31.95;17.10;;;9.70;99.90;;;;;;5044401;28;20060;-44
2023/03/22 03:28:45;;;;;;;28.83;16.98;;;9.70;99.90;;;;;;5043890;28;20116;-44
2023/03/22 03:31:38;;;;;;;30.25;17.10;;;9.70;99.90;;;;;;5044924;28;20029;-45
2023/03/22 03:34:13;;;;;;;29.23;17.70;;;9.80;99.90;;;;;;5045973;28;20033;-45
2023/03/22 03:36:44;;;;;;;27.35;17.20;;;9.80;99.90;;;;;;5042529;28;20067;-45
2023/03/22 03:39:13;;;;;;;29.08;17.48;;;9.80;99.90;;;;;;5042823;28;20478;-46
2023/03/22 03:41:41;;;;;;;27.58;16.67;;;9.70;99.90;;;;;;5044842;28;20013;-46
2023/03/22 03:44:07;;;;;;;27.27;16.80;;;9.80;99.90;;;;;;5041814;28;20040;-44
2023/03/22 03:46:33;;;;;;;27.67;17.55;;;9.80;99.90;;;;;;5042175;28;20017;-44
2023/03/22 03:49:02;;;;;;;30.02;16.70;;;9.80;99.90;;;;;;5043004;28;20017;-46
2023/03/22 03:51:27;;;;;;;29.45;18.17;;;9.80;99.90;;;;;;5044297;28;20033;-45
2023/03/22 03:53:53;;;;;;;29.98;17.52;;;9.80;99.90;;;;;;5044082;28;20017;-45
2023/03/22 03:56:19;;;;;;;25.55;17.10;;;9.80;99.90;;;;;;5040770;28;20018;-47
2023/03/22 03:58:44;;;;;;;28.45;18.40;;;9.80;99.90;;;;;;5039172;28;20036;-45
2023/03/22 04:01:10;;;;;;;30.15;17.45;;;9.80;99.90;;;;;;5039211;28;20028;-45
2023/03/22 04:03:36;;;;;;;29.70;18.75;;;9.80;99.90;;;;;;5044251;28;20025;-45
2023/03/22 04:06:02;;;;;;;30.42;17.00;;;9.80;99.90;;;;;;5047063;28;20478;-45
2023/03/22 04:08:28;;;;;;;25.88;17.27;;;9.80;99.90;;;;;;5038924;28;20206;-48
2023/03/22 04:10:53;;;;;;;30.98;17.70;;;9.80;99.90;;;;;;5039879;28;20108;-45
2023/03/22 04:13:23;;;;;;;29.67;17.63;;;9.80;99.90;;;;;;5041542;28;20505;-45
2023/03/22 04:15:56;;;;;;;34.17;18.10;;;9.70;99.90;;;;;;5043915;28;20024;-45
2023/03/22 04:18:22;;;;;;;28.50;17.55;;;9.70;99.90;;;;;;5045552;28;20387;-45
2023/03/22 04:20:48;;;;;;;29.65;17.98;;;9.80;99.90;;;;;;5044617;28;20025;-46
2023/03/22 04:23:14;;;;;;;28.65;17.27;;;9.80;99.90;;;;;;5041464;28;20392;-46
2023/03/22 04:25:40;;;;;;;29.48;17.58;;;9.80;99.90;;;;;;5043687;28;20013;-45
2023/03/22 04:28:08;;;;;;;32.75;18.30;;;9.80;99.90;;;;;;5072344;28;20103;-45
2023/03/22 04:30:35;;;;;;;27.77;17.05;;;9.80;99.90;;;;;;5041736;28;20071;-46
2023/03/22 04:33:05;;;;;;;26.08;15.65;;;9.80;99.90;;;;;;5046683;28;20036;-45
2023/03/22 04:35:32;;;;;;;;;;;9.80;99.90;;;;;;5041961;28;20021;-45
2023/03/22 04:38:00;;;;;;;24.92;15.20;;;9.80;99.90;;;;;;5042681;28;19959;-45
2023/03/22 04:40:27;;;;;;;27.17;15.35;;;9.80;99.90;;;;;;5042835;28;20120;-45
2023/03/22 04:42:56;;;;;;;23.85;15.88;;;9.80;99.90;;;;;;5043671;28;20021;-45
2023/03/22 04:45:22;;;;;;;26.63;15.52;;;9.90;99.90;;;;;;5044557;28;20666;-47
2023/03/22 04:47:47;;;;;;;33.45;18.13;;;9.90;99.90;;;;;;5043450;28;20120;-45
2023/03/22 04:50:13;;;;;;;27.73;15.50;;;9.90;99.90;;;;;;5040147;28;20025;-46
2023/03/22 04:52:38;;;;;;;26.13;15.27;;;9.90;99.90;;;;;;5042786;28;20057;-45
2023/03/22 04:55:04;;;;;;;26.98;14.88;;;9.90;99.90;;;;;;5042906;28;20056;-45
2023/03/22 04:57:30;;;;;;;22.95;15.27;;;9.80;99.90;;;;;;5041520;28;20017;-45
2023/03/22 04:59:55;;;;;;;25.52;16.15;;;9.80;99.90;;;;;;5043513;28;20664;-45
2023/03/22 05:02:21;;;;;;;23.83;14.82;;;9.80;99.90;;;;;;5069752;28;20029;-46
2023/03/22 05:04:47;;;;;;;27.17;16.45;;;9.80;99.90;;;;;;5047231;28;20027;-48
2023/03/22 05:07:12;;;;;;;25.77;15.30;;;9.80;99.90;;;;;;5043334;28;20016;-46
2023/03/22 05:09:38;;;;;;;29.50;17.35;;;9.70;99.90;;;;;;5042298;28;20049;-45
2023/03/22 05:12:03;;;;;;;36.55;17.67;;;9.80;99.90;;;;;;5043014;28;20014;-45
2023/03/22 05:14:29;;;;;;;27.23;16.65;;;9.70;99.90;;;;;;5039570;28;20035;-45
2023/03/22 05:16:55;;;;;;;31.08;17.38;;;9.70;99.90;;;;;;5045444;28;20075;-46
2023/03/22 05:19:21;;;;;;;28.75;17.40;;;9.70;99.90;;;;;;5040982;28;20037;-45
2023/03/22 05:21:46;;;;;;;27.33;16.25;;;9.80;99.90;;;;;;5042739;28;20017;-45
2023/03/22 05:24:12;;;;;;;29.33;18.42;;;9.70;99.90;;;;;;5040857;28;20528;-45
2023/03/22 05:26:41;;;;;;;31.92;17.50;;;9.70;99.90;;;;;;5049401;28;20021;-44
2023/03/22 05:29:08;;;;;;;30.60;17.15;;;9.80;99.90;;;;;;5049634;28;20017;-45
2023/03/22 05:31:34;;;;;;;28.42;17.42;;;9.80;99.90;;;;;;5049751;28;20029;-45
2023/03/22 05:34:00;;;;;;;31.92;17.77;;;9.80;99.90;;;;;;5049227;28;20032;-45
2023/03/22 05:36:28;;;;;;;34.30;17.77;;;9.80;99.90;;;;;;5040392;28;20603;-44
2023/03/22 05:38:55;;;;;;;26.33;16.08;;;9.90;99.90;;;;;;5042115;28;20021;-45
2023/03/22 05:41:21;;;;;;;26.52;16.40;;;10.00;99.90;;;;;;5041896;28;20096;-45
2023/03/22 05:43:46;;;;;;;24.50;15.90;;;10.00;99.90;;;;;;5041237;28;20109;-45
2023/03/22 05:46:12;;;;;;;28.27;17.10;;;10.10;99.90;;;;;;5046407;28;20078;-45
2023/03/22 05:48:38;;;;;;;25.40;15.90;;;10.10;99.90;;;;;;5049232;28;20047;-45
2023/03/22 05:51:08;;;;;;;32.42;16.92;;;10.10;99.90;;;;;;5049739;28;20393;-45
2023/03/22 05:53:34;;;;;;;28.00;15.52;;;10.10;99.90;;;;;;5049267;28;20422;-46
2023/03/22 05:56:00;;;;;;;22.73;16.17;;;10.20;99.90;;;;;;5040415;28;20032;-45
2023/03/22 05:58:27;;;;;;;25.70;16.33;;;10.10;99.90;;;;;;5049302;28;20017;-45
2023/03/22 06:00:54;;;;;;;27.45;15.43;;;10.20;99.90;;;;;;5049599;28;20017;-45
2023/03/22 06:03:20;;;;;;;29.33;15.88;;;10.20;99.90;;;;;;5048530;28;20060;-45
2023/03/22 06:05:49;;;;;;;25.17;16.17;;;10.20;99.90;;;;;;5048276;28;20036;-45
2023/03/22 06:08:15;;;;;;;24.83;15.80;;;10.20;99.90;;;;;;5049097;28;20417;-46
2023/03/22 06:10:41;;;;;;;30.05;15.88;;;10.10;99.90;;;;;;5047551;28;20031;-45
2023/03/22 06:13:06;;;;;;;24.60;16.02;;;10.20;99.90;;;;;;5046410;28;20029;-44
2023/03/22 06:15:32;;;;;;;30.70;15.13;;;10.30;99.90;;;;;;5041708;28;20072;-45
2023/03/22 06:17:57;;;;;;;23.50;15.15;;;10.20;99.90;;;;;;5041395;28;20491;-45
2023/03/22 06:20:24;;;;;;;24.00;14.23;;;10.30;99.90;;;;;;5039875;28;20029;-45
2023/03/22 06:22:49;;;;;;;22.75;14.20;;;10.30;99.90;;;;;;5042558;28;20013;-48
2023/03/22 06:25:15;;;;;;;25.33;13.60;;;10.30;99.90;;;;;;5040545;28;20569;-45
2023/03/22 06:27:41;;;;;;;25.65;14.32;;;10.30;99.90;;;;;;5040483;28;20368;-45
2023/03/22 06:30:07;;;;;;;27.30;15.25;;;10.30;99.90;;;;;;5040832;28;20214;-48
2023/03/22 06:32:32;;;;;;;27.20;15.25;;;10.30;99.90;;;;;;5041899;28;20032;-48
2023/03/22 06:34:58;;;;;;;25.42;13.45;;;10.30;99.90;;;;;;5043525;28;20377;-47
2023/03/22 06:37:24;;;;;;;22.48;14.93;;;10.40;99.90;;;;;;5042459;28;20017;-46
2023/03/22 06:39:50;;;;;;;25.50;14.02;;;10.40;99.90;;;;;;5042772;28;20048;-46
2023/03/22 06:42:16;;;;;;;21.20;13.77;;;10.50;99.90;;;;;;5041010;28;20497;-45
2023/03/22 06:44:43;;;;;;;29.48;15.85;;;10.50;99.90;;;;;;5041898;28;20033;-45
2023/03/22 06:47:09;;;;;;;23.13;14.07;;;10.50;99.90;;;;;;5041938;28;20478;-45
2023/03/22 06:49:35;;;;;;;22.13;14.65;;;10.50;99.90;;;;;;5040635;28;20104;-46
2023/03/22 06:52:00;;;;;;;19.50;13.43;;;10.60;99.90;;;;;;5043127;28;20480;-44
2023/03/22 06:54:26;;;;;;;22.33;13.68;;;10.70;99.90;;;;;;5039851;28;20033;-47
2023/03/22 06:56:52;;;;;;;22.73;14.60;;;10.80;99.90;;;;;;5042424;28;20106;-45
2023/03/22 06:59:17;;;;;;;24.15;13.95;;;10.80;99.90;;;;;;5040868;28;20017;-45
2023/03/22 07:01:43;;;;;;;24.10;14.68;;;10.90;99.90;;;;;;5041951;28;20017;-45
2023/03/22 07:04:09;;;;;;;20.65;13.40;;;10.80;99.90;;;;;;5044806;28;20082;-44
2023/03/22 07:06:34;;;;;;;24.73;14.93;;;10.90;99.90;;;;;;5042130;28;20041;-44
2023/03/22 07:09:01;;;;;;;23.00;13.57;;;10.90;99.90;;;;;;5042574;28;20103;-44
2023/03/22 07:11:26;;;;;;;22.23;14.07;;;10.90;99.90;;;;;;5038926;28;20075;-45
2023/03/22 07:13:53;;;;;;;22.48;14.25;;;10.90;99.90;;;;;;5042947;28;20033;-44
2023/03/22 07:16:20;;;;;;;22.60;13.43;;;10.90;99.90;;;;;;5039456;28;20422;-47
2023/03/22 07:18:47;;;;;;;26.77;14.25;;;11.00;99.90;;;;;;5042095;28;20582;-44
2023/03/22 07:21:13;;;;;;;23.63;14.73;;;11.00;99.90;;;;;;5045206;28;20024;-47
2023/03/22 07:23:38;;;;;;;20.60;13.75;;;10.90;99.90;;;;;;5048151;28;20036;-45
2023/03/22 07:26:04;;;;;;;26.05;15.68;;;11.00;99.90;;;;;;5047686;28;20036;-44
2023/03/22 07:28:30;;;;;;;24.27;14.60;;;11.00;99.90;;;;;;5048003;28;20021;-45
2023/03/22 07:31:04;;;;;;;24.55;14.60;;;11.00;99.90;;;;;;5047925;28;20025;-45
2023/03/22 07:33:30;;;;;;;19.05;12.85;;;11.10;99.90;;;;;;5047868;28;20039;-44
2023/03/22 07:35:55;;;;;;;19.10;13.30;;;11.20;99.90;;;;;;5047213;28;20014;-44
2023/03/22 07:38:21;;;;;;;21.13;13.85;;;11.30;99.90;;;;;;5048317;28;20018;-45
2023/03/22 07:40:49;;;;;;;22.23;13.68;;;11.40;99.90;;;;;;5047965;28;20045;-44
2023/03/22 07:43:14;;;;;;;22.08;13.52;;;11.50;99.90;;;;;;5046874;28;20390;-47
2023/03/22 07:45:40;;;;;;;23.80;13.77;;;11.50;99.90;;;;;;5047731;28;20025;-46
2023/03/22 07:48:05;;;;;;;21.80;13.77;;;11.60;99.90;;;;;;5048019;28;20031;-44
2023/03/22 07:50:31;;;;;;;20.67;12.85;;;11.70;99.90;;;;;;5047770;28;20264;-44
2023/03/22 07:52:57;;;;;;;18.65;12.07;;;11.90;99.90;;;;;;5047631;28;20517;-44
2023/03/22 07:55:22;;;;;;;25.15;13.48;;;11.90;99.90;;;;;;5047388;28;20497;-44
2023/03/22 07:57:48;;;;;;;17.90;12.57;;;12.10;99.90;;;;;;5047838;28;20032;-45
2023/03/22 08:00:14;;;;;;;20.70;12.15;;;12.10;99.90;;;;;;5047731;28;20029;-44
2023/03/22 08:02:40;;;;;;;19.92;12.70;;;12.10;99.90;;;;;;5045054;28;20076;-45
2023/03/22 08:05:06;;;;;;;21.33;13.20;;;12.40;99.90;;;;;;5050580;28;20057;-44
2023/03/22 08:07:31;;;;;;;18.67;13.05;;;12.50;99.90;;;;;;5059556;28;20048;-44
2023/03/22 08:09:57;;;;;;;18.92;12.45;;;12.40;99.90;;;;;;5051269;28;20055;-44
2023/03/22 08:12:22;;;;;;;16.17;11.15;;;12.70;99.90;;;;;;5051361;28;20036;-45
2023/03/22 08:14:50;;;;;;;19.35;12.27;;;12.90;99.90;;;;;;5047353;28;20021;-46
2023/03/22 08:17:17;;;;;;;22.02;12.23;;;13.20;99.90;;;;;;5043400;28;20017;-44
2023/03/22 08:19:42;;;;;;;18.45;11.80;;;12.90;99.90;;;;;;5044163;28;20032;-46
2023/03/22 08:22:08;;;;;;;21.27;13.10;;;13.10;99.90;;;;;;5044618;28;20013;-46
2023/03/22 08:24:34;;;;;;;17.70;11.32;;;13.00;99.90;;;;;;5043550;28;20079;-45
2023/03/22 08:27:00;;;;;;;21.95;11.30;;;13.10;99.90;;;;;;5045668;28;20462;-45
2023/03/22 08:29:26;;;;;;;19.30;11.18;;;13.40;99.90;;;;;;5043138;28;20026;-45
2023/03/22 08:31:51;;;;;;;18.60;10.82;;;13.50;99.90;;;;;;5045444;28;20048;-45
2023/03/22 08:34:17;;;;;;;18.55;10.65;;;13.50;99.90;;;;;;5046538;28;20506;-47
2023/03/22 08:36:43;;;;;;;14.45;9.30;;;13.70;99.90;;;;;;5043357;28;20455;-45
2023/03/22 08:39:09;;;;;;;16.60;10.23;;;14.20;99.90;;;;;;5044340;28;20052;-46
2023/03/22 08:41:34;;;;;;;15.25;10.40;;;14.30;99.90;;;;;;5045053;28;20023;-48
2023/03/22 08:44:00;;;;;;;14.65;9.45;;;15.20;99.90;;;;;;5047166;28;20107;-46
2023/03/22 08:46:26;;;;;;;13.70;9.68;;;16.30;99.90;;;;;;5046999;28;20112;-43
2023/03/22 08:48:52;;;;;;;16.52;9.63;;;17.50;99.90;;;;;;5042871;28;20029;-45
2023/03/22 08:51:20;;;;;;;10.45;8.35;;;17.30;99.90;;;;;;5042906;28;20044;-43
2023/03/22 08:53:46;;;;;;;11.93;7.35;;;17.90;99.00;;;;;;5044748;28;20017;-44
2023/03/22 08:56:16;;;;;;;13.50;7.85;;;18.70;98.60;;;;;;5042412;28;20047;-45
2023/03/22 08:58:45;;;;;;;13.38;7.55;;;20.10;94.80;;;;;;5043696;28;20509;-43
2023/03/22 09:01:15;;;;;;;9.48;7.10;;;19.70;93.40;;;;;;5044452;28;20025;-44
2023/03/22 09:03:41;;;;;;;;;;;18.70;94.90;;;;;;5044828;28;20427;-43
2023/03/22 09:06:07;;;;;;;15.50;8.43;;;18.40;95.10;;;;;;5045175;28;19916;-44
2023/03/22 09:08:33;;;;;;;11.48;7.47;;;18.30;94.90;;;;;;5042161;28;20321;-46
2023/03/22 09:10:59;;;;;;;12.52;8.75;;;17.90;96.20;;;;;;5044240;28;21048;-43
2023/03/22 09:13:24;;;;;;;13.38;8.57;;;18.40;95.40;;;;;;5041781;28;20040;-43
2023/03/22 09:15:51;;;;;;;13.40;8.80;;;17.60;95.90;;;;;;5048427;28;20010;-44
2023/03/22 09:18:17;;;;;;;13.65;8.32;;;17.20;97.10;;;;;;5043111;28;20017;-44
2023/03/22 09:20:44;;;;;;;15.48;8.93;;;16.40;98.20;;;;;;5042903;28;20026;-43
2023/03/22 09:23:11;;;;;;;16.00;9.07;;;16.10;99.00;;;;;;5043731;28;20057;-45
2023/03/22 09:25:36;;;;;;;15.20;8.63;;;16.00;99.70;;;;;;5042161;28;20040;-43
2023/03/22 09:28:02;;;;;;;11.82;8.15;;;16.30;99.50;;;;;;5031804;28;20394;-44
2023/03/22 09:30:28;;;;;;;12.95;8.18;;;16.10;99.40;;;;;;5030679;28;20037;-44
2023/03/22 09:32:54;;;;;;;19.38;8.40;;;16.30;99.90;;;;;;5039146;28;20029;-44
2023/03/22 09:35:20;;;;;;;16.08;8.43;;;16.20;99.90;;;;;;5045458;28;20021;-44
2023/03/22 09:37:46;;;;;;;13.13;8.10;;;16.60;98.50;;;;;;5033763;28;20030;-44
2023/03/22 09:40:12;;;;;;;16.00;8.70;;;16.60;98.60;;;;;;5030688;28;20021;-46
2023/03/22 09:42:42;;;;;;;13.80;7.75;;;16.50;98.40;;;;;;5043718;28;20025;-44
2023/03/22 09:45:17;;;;;;;18.30;9.13;;;15.80;99.60;;;;;;5049525;28;20032;-44
2023/03/22 09:47:47;;;;;;;20.38;8.52;;;16.20;99.30;;;;;;5040785;28;20041;-44
2023/03/22 09:50:43;;;;;;;13.50;8.63;;;16.20;99.10;;;;;;5034704;28;20437;-44
2023/03/22 09:53:13;;;;;;;16.92;7.43;;;16.80;98.50;;;;;;5047854;28;20025;-44
2023/03/22 09:55:53;;;;;;;14.32;7.45;;;17.10;97.50;;;;;;5035788;28;20043;-46
2023/03/22 09:58:44;;;;;;;12.10;7.32;;;17.30;96.60;;;;;;5046929;28;20497;-47
2023/03/22 10:01:39;;;;;;;13.48;7.35;;;17.80;96.20;;;;;;5045078;28;20021;-45
2023/03/22 10:04:31;;;;;;;14.15;6.72;;;17.70;96.10;;;;;;5043444;28;20021;-45
2023/03/22 10:07:27;;;;;;;18.83;9.70;;;18.00;95.50;;;;;;5034014;28;20039;-44
2023/03/22 10:10:19;;;;;;;12.75;6.10;;;18.30;94.40;;;;;;5046782;28;20059;-45
2023/03/22 10:13:05;;;;;;;12.57;5.60;;;18.80;93.30;;;;;;5040201;28;20377;-46
2023/03/22 10:15:38;;;;;;;7.95;5.97;;;20.00;92.80;;;;;;5041347;28;20017;-44
2023/03/22 10:18:18;;;;;;;10.45;6.18;;;21.50;90.40;;;;;;5042043;28;20103;-45
2023/03/22 10:20:59;;;;;;;10.93;5.93;;;22.30;84.80;;;;;;5039913;28;20430;-48
2023/03/22 10:23:40;;;;;;;10.30;5.90;;;21.90;81.40;;;;;;5041620;28;20021;-48
2023/03/22 10:26:07;;;;;;;12.20;5.85;;;21.70;82.00;;;;;;5041150;28;20028;-45
2023/03/22 10:28:33;;;;;;;8.85;5.60;;;21.80;82.90;;;;;;5037707;28;20026;-44
2023/03/22 10:30:59;;;;;;;13.02;5.97;;;21.50;81.30;;;;;;5041932;28;20367;-45
2023/03/22 10:33:38;;;;;;;9.32;6.38;;;20.40;83.00;;;;;;5043782;28;20028;-45
2023/03/22 10:36:09;;;;;;;8.30;5.93;;;19.00;87.70;;;;;;5042389;28;20034;-45
2023/03/22 10:38:44;;;;;;;11.88;7.00;;;19.00;90.00;;;;;;5039347;28;20319;-45
2023/03/22 10:41:14;;;;;;;9.98;5.25;;;18.30;90.70;;;;;;5042141;28;20021;-47
2023/03/22 10:43:42;;;;;;;9.60;6.57;;;18.70;90.70;;;;;;5039200;28;20438;-45
2023/03/22 10:46:17;;;;;;;11.05;6.47;;;18.90;89.70;;;;;;5041492;28;20067;-45
2023/03/22 10:48:45;;;;;;;12.13;6.50;;;18.60;90.70;;;;;;5038242;28;20037;-47
2023/03/22 10:51:37;;;;;;;10.85;6.38;;;18.50;89.40;;;;;;5041944;28;20016;-44
2023/03/22 10:54:04;;;;;;;12.82;7.40;;;17.70;92.00;;;;;;5046692;28;20039;-45
2023/03/22 10:56:30;;;;;;;11.75;6.97;;;17.70;91.80;;;;;;5048082;28;20102;-44
2023/03/22 10:58:56;;;;;;;12.25;6.50;;;17.20;92.00;;;;;;5048673;28;20053;-47
2023/03/22 11:01:31;;;;;;;10.25;7.05;;;18.00;92.00;;;;;;5048820;28;20087;-44
2023/03/22 11:04:09;;;;;;;11.75;6.55;;;18.40;90.70;;;;;;5048161;28;20100;-45
2023/03/22 11:06:47;;;;;;;16.08;8.40;;;17.50;91.50;;;;;;5048218;28;20108;-44
2023/03/22 11:09:17;;;;;;;12.02;8.02;;;16.70;92.80;;;;;;5048717;28;20052;-45
2023/03/22 11:11:51;;;;;;;14.50;7.70;;;16.90;93.90;;;;;;5048614;28;20047;-44
2023/03/22 11:14:40;;;;;;;11.52;7.30;;;16.80;93.40;;;;;;5048129;28;20021;-45
2023/03/22 11:17:06;;;;;;;10.68;7.32;;;16.80;93.80;;;;;;5048085;28;20159;-45
2023/03/22 11:19:51;;;;;;;11.57;7.10;;;16.60;93.80;;;;;;5047939;28;20100;-44
2023/03/22 11:22:30;;;;;;;13.73;6.68;;;16.60;94.00;;;;;;5048090;28;20013;-45
2023/03/22 11:24:56;;;;;;;10.35;6.15;;;17.10;93.20;;;;;;5048614;28;20025;-45
2023/03/22 11:27:24;;;;;;;10.82;6.05;;;18.50;91.50;;;;;;5048047;28;20032;-44
2023/03/22 11:29:52;;;;;;;12.40;5.55;;;19.00;88.10;;;;;;5048097;28;20025;-44
2023/03/22 11:32:29;;;;;;;8.45;5.55;;;19.00;88.50;;;;;;5048176;28;20017;-44
2023/03/22 11:35:01;;;;;;;10.63;5.93;;;20.10;86.60;;;;;;5047772;28;20009;-45
2023/03/22 11:37:27;;;;;;;10.68;5.20;;;21.20;81.80;;;;;;5049260;28;20441;-44
2023/03/22 11:39:58;;;;;;;6.80;4.97;;;20.80;80.70;;;;;;5051765;28;20024;-44
2023/03/22 11:42:25;;;;;;;11.43;5.32;;;20.40;82.40;;;;;;5051950;28;20047;-46
2023/03/22 11:44:51;;;;;;;9.50;4.95;;;21.10;79.80;;;;;;5051680;28;20078;-47
2023/03/22 11:47:17;;;;;;;9.13;4.32;;;21.10;79.20;;;;;;5051567;28;20083;-45
2023/03/22 11:49:49;;;;;;;8.00;4.75;;;21.30;79.40;;;;;;5051705;28;20021;-47
2023/03/22 11:52:25;;;;;;;6.20;4.97;;;20.40;79.70;;;;;;5051978;28;20095;-44
2023/03/22 11:54:53;;;;;;;7.95;4.22;;;19.70;79.50;;;;;;5051216;28;20025;-45
2023/03/22 11:57:25;;;;;;;8.65;4.53;;;19.50;80.80;;;;;;5051569;28;20108;-46
2023/03/22 11:59:59;;;;;;;7.10;4.97;;;20.10;80.80;;;;;;5051755;28;20092;-46
2023/03/22 12:02:26;;;;;;;7.72;4.72;;;19.70;81.10;;;;;;5051582;28;20017;-46
2023/03/22 12:05:04;;;;;;;8.43;5.05;;;20.50;78.60;;;;;;5051407;28;20021;-45
2023/03/22 12:07:31;;;;;;;7.10;4.28;;;20.60;80.40;;;;;;5051507;28;20017;-44
2023/03/22 12:10:00;;;;;;;8.13;4.80;;;20.80;79.70;;;;;;5050493;28;20021;-45
2023/03/22 12:12:30;;;;;;;7.25;4.72;;;20.20;80.60;;;;;;5051503;28;20321;-47
2023/03/22 12:15:17;;;;;;;10.10;4.43;;;20.00;79.50;;;;;;5051237;28;20382;-45
2023/03/22 12:18:01;;;;;;;8.15;4.35;;;19.40;80.60;;;;;;5051405;28;20365;-46
2023/03/22 12:20:45;;;;;;;7.20;4.00;;;18.80;83.00;;;;;;5051167;28;20040;-47
2023/03/22 12:23:15;;;;;;;20.83;5.15;;;18.60;83.20;;;;;;5051442;28;20028;-47
2023/03/22 12:26:03;;;;;;;8.48;4.65;;;18.30;83.50;;;;;;5050676;28;20032;-44
2023/03/22 12:28:39;;;;;;;9.10;3.75;;;18.30;83.90;;;;;;5043125;28;20044;-44
2023/03/22 12:31:06;;;;;;;8.60;4.40;;;18.10;85.20;;;;;;5050896;28;20100;-46
2023/03/22 12:33:44;;;;;;;8.45;4.40;;;18.00;83.70;;;;;;5050439;28;20025;-45
2023/03/22 12:36:16;;;;;;;6.68;3.97;;;17.90;84.90;;;;;;5050357;28;20438;-45
2023/03/22 12:38:54;;;;;;;8.95;3.50;;;17.90;85.90;;;;;;5049598;28;20119;-44
2023/03/22 12:41:39;;;;;;;10.35;4.53;;;17.80;87.20;;;;;;5048037;28;20043;-45
2023/03/22 12:44:16;;;;;;;7.10;3.75;;;17.50;87.00;;;;;;5047133;28;20108;-45
2023/03/22 12:46:45;;;;;;;6.13;3.55;;;17.40;86.00;;;;;;5043387;28;20112;-44
2023/03/22 12:49:28;;;;;;;5.30;3.10;;;17.20;87.70;;;;;;5045928;28;20029;-45
2023/03/22 12:52:02;;;;;;;8.32;3.72;;;17.20;88.20;;;;;;5040203;28;20053;-45